createdAt,value
2022-08-30T00:01:00.590Z,25.75
2022-08-30T00:03:27.562Z,25.79
2022-08-30T00:05:56.350Z,25.80
2022-08-30T00:08:23.372Z,25.79
2022-08-30T00:10:51.277Z,25.79
2022-08-30T00:13:19.531Z,25.80
2022-08-30T00:15:47.337Z,25.81
2022-08-30T00:18:15.723Z,25.85
2022-08-30T00:20:42.798Z,25.95
2022-08-30T00:23:09.462Z,26.02
2022-08-30T00:25:36.116Z,26.10
2022-08-30T00:28:03.155Z,26.17
2022-08-30T00:30:29.862Z,26.23
2022-08-30T00:32:56.399Z,26.19
2022-08-30T00:35:23.374Z,26.17
2022-08-30T00:37:50.893Z,26.23
2022-08-30T00:40:20.382Z,26.19
2022-08-30T00:42:59.854Z,26.15
2022-08-30T00:45:31.749Z,26.12
2022-08-30T00:47:59.085Z,26.20
2022-08-30T00:50:28.967Z,26.25
2022-08-30T00:52:59.324Z,26.21
2022-08-30T00:55:26.314Z,26.12
2022-08-30T00:57:57.049Z,26.18
2022-08-30T01:00:23.664Z,26.14
2022-08-30T01:02:50.670Z,26.20
2022-08-30T01:05:20.675Z,26.30
2022-08-30T01:07:47.280Z,26.25
2022-08-30T01:10:14.894Z,26.29
2022-08-30T01:12:42.950Z,26.27
2022-08-30T01:15:11.047Z,26.20
2022-08-30T01:17:38.243Z,26.12
2022-08-30T01:20:10.516Z,26.08
2022-08-30T01:22:49.295Z,26.03
2022-08-30T01:25:18.755Z,26.02
2022-08-30T01:27:49.327Z,25.97
2022-08-30T01:30:16.014Z,25.99
2022-08-30T01:32:45.896Z,26.12
2022-08-30T01:35:15.613Z,26.06
2022-08-30T01:37:43.567Z,26.05
2022-08-30T01:40:11.906Z,26.08
2022-08-30T01:42:38.547Z,26.03
2022-08-30T01:45:06.716Z,25.96
2022-08-30T01:47:33.487Z,25.87
2022-08-30T01:50:00.476Z,25.87
2022-08-30T01:52:27.943Z,25.94
2022-08-30T01:54:54.548Z,25.98
2022-08-30T01:57:23.387Z,26.00
2022-08-30T01:59:50.402Z,25.97
2022-08-30T02:02:19.854Z,25.95
2022-08-30T02:04:46.754Z,25.90
2022-08-30T02:07:13.280Z,25.86
2022-08-30T02:09:44.210Z,25.81
2022-08-30T02:12:12.834Z,25.80
2022-08-30T02:14:39.589Z,25.79
2022-08-30T02:17:08.228Z,25.73
2022-08-30T02:19:34.793Z,25.70
2022-08-30T02:22:01.408Z,25.71
2022-08-30T02:24:28.158Z,25.66
2022-08-30T02:26:54.781Z,25.58
2022-08-30T02:29:22.558Z,25.52
2022-08-30T02:31:49.542Z,25.49
2022-08-30T02:34:16.897Z,25.43
2022-08-30T02:36:43.958Z,25.40
2022-08-30T02:39:11.920Z,25.39
2022-08-30T02:41:39.066Z,25.39
2022-08-30T02:44:06.572Z,25.38
2022-08-30T02:46:34.741Z,25.33
2022-08-30T02:49:13.043Z,25.28
2022-08-30T02:51:49.495Z,25.27
2022-08-30T02:54:19.958Z,25.31
2022-08-30T02:56:47.935Z,25.31
2022-08-30T02:59:15.886Z,25.29
2022-08-30T03:01:42.930Z,25.26
2022-08-30T03:04:09.966Z,25.29
2022-08-30T03:06:36.581Z,25.26
2022-08-30T03:09:03.678Z,25.27
2022-08-30T03:11:31.553Z,25.26
2022-08-30T03:13:58.302Z,25.21
2022-08-30T03:16:25.083Z,25.17
2022-08-30T03:18:51.674Z,25.19
2022-08-30T03:21:18.323Z,25.16
2022-08-30T03:23:44.951Z,25.15
2022-08-30T03:26:14.735Z,25.11
2022-08-30T03:28:42.620Z,25.06
2022-08-30T03:31:09.462Z,25.01
2022-08-30T03:33:36.829Z,24.91
2022-08-30T03:36:03.874Z,24.84
2022-08-30T03:38:31.073Z,24.78
2022-08-30T03:40:57.686Z,24.73
2022-08-30T03:43:25.365Z,24.75
2022-08-30T03:45:52.459Z,24.70
2022-08-30T03:48:19.126Z,24.69
2022-08-30T03:50:45.703Z,24.71
2022-08-30T03:53:12.329Z,24.75
2022-08-30T03:55:38.891Z,24.80
2022-08-30T03:58:05.489Z,24.81
2022-08-30T04:00:32.182Z,24.81
2022-08-30T04:02:58.847Z,24.80
2022-08-30T04:05:25.525Z,24.79
2022-08-30T04:07:52.375Z,24.82
2022-08-30T04:10:21.337Z,24.89
2022-08-30T04:12:49.803Z,24.90
2022-08-30T04:15:18.018Z,24.90
2022-08-30T04:17:44.736Z,24.89
2022-08-30T04:20:11.376Z,24.97
2022-08-30T04:22:38.209Z,25.02
2022-08-30T04:25:06.068Z,25.03
2022-08-30T04:27:32.711Z,24.95
2022-08-30T04:30:00.277Z,24.96
2022-08-30T04:32:27.122Z,24.86
2022-08-30T04:34:58.632Z,24.82
2022-08-30T04:37:25.414Z,24.85
2022-08-30T04:39:56.470Z,24.91
2022-08-30T04:42:23.676Z,24.92
2022-08-30T04:44:50.930Z,24.94
2022-08-30T04:47:18.574Z,24.99
2022-08-30T04:49:45.191Z,25.00
2022-08-30T04:52:11.790Z,24.97
2022-08-30T04:54:38.567Z,24.94
2022-08-30T04:57:06.559Z,24.96
2022-08-30T04:59:33.409Z,24.95
2022-08-30T05:02:00.325Z,24.97
2022-08-30T05:04:26.972Z,24.99
2022-08-30T05:06:53.959Z,25.03
2022-08-30T05:09:21.639Z,25.06
2022-08-30T05:11:48.570Z,25.04
2022-08-30T05:14:15.179Z,25.07
2022-08-30T05:16:42.005Z,25.14
2022-08-30T05:19:08.628Z,25.20
2022-08-30T05:21:35.460Z,25.19
2022-08-30T05:24:02.253Z,25.20
2022-08-30T05:26:33.799Z,25.23
2022-08-30T05:29:01.012Z,25.27
2022-08-30T05:31:30.577Z,25.26
2022-08-30T05:33:57.760Z,25.19
2022-08-30T05:36:26.455Z,25.16
2022-08-30T05:38:53.727Z,25.12
2022-08-30T05:41:21.634Z,25.11
2022-08-30T05:43:48.882Z,25.10
2022-08-30T05:46:19.958Z,25.14
2022-08-30T05:48:47.032Z,25.17
2022-08-30T05:51:19.265Z,25.23
2022-08-30T05:53:47.042Z,25.31
2022-08-30T05:56:15.956Z,25.38
2022-08-30T05:58:43.527Z,25.46
2022-08-30T06:01:31.812Z,25.50
2022-08-30T06:04:03.835Z,25.56
2022-08-30T06:06:33.302Z,25.59
2022-08-30T06:08:59.851Z,25.61
2022-08-30T06:11:26.800Z,25.63
2022-08-30T06:13:54.612Z,25.64
2022-08-30T06:16:23.861Z,25.71
2022-08-30T06:18:50.865Z,25.81
2022-08-30T06:21:25.116Z,25.81
2022-08-30T06:23:52.340Z,25.74
2022-08-30T06:26:19.225Z,25.70
2022-08-30T06:28:45.831Z,25.65
2022-08-30T06:31:14.340Z,25.64
2022-08-30T06:33:41.053Z,25.63
2022-08-30T06:36:10.491Z,25.69
2022-08-30T06:38:37.830Z,25.82
2022-08-30T06:41:08.944Z,26.00
2022-08-30T06:43:35.605Z,26.23
2022-08-30T06:46:05.288Z,26.43
2022-08-30T06:48:31.916Z,26.59
2022-08-30T06:50:59.207Z,26.66
2022-08-30T06:53:26.960Z,26.63
2022-08-30T06:56:04.439Z,26.61
2022-08-30T06:58:31.761Z,26.61
2022-08-30T07:00:58.411Z,26.64
2022-08-30T07:03:27.330Z,26.71
2022-08-30T07:05:56.976Z,26.77
2022-08-30T07:08:25.444Z,26.83
2022-08-30T07:10:54.545Z,26.91
2022-08-30T07:13:23.876Z,27.00
2022-08-30T07:15:51.406Z,27.07
2022-08-30T07:18:36.888Z,27.20
2022-08-30T07:21:15.202Z,27.33
2022-08-30T07:23:43.404Z,27.48
2022-08-30T07:26:12.637Z,27.63
2022-08-30T07:28:41.169Z,27.77
2022-08-30T07:33:40.569Z,28.09
2022-08-30T07:36:07.596Z,28.16
2022-08-30T07:38:34.628Z,28.19
2022-08-30T07:41:01.351Z,28.16
2022-08-30T07:43:29.116Z,28.17
2022-08-30T07:45:58.014Z,28.18
2022-08-30T07:48:24.649Z,28.19
2022-08-30T07:50:54.908Z,28.17
2022-08-30T07:53:24.331Z,28.17
2022-08-30T07:55:51.992Z,28.19
2022-08-30T07:58:18.648Z,28.24
2022-08-30T08:00:45.549Z,28.33
2022-08-30T08:03:12.564Z,28.46
2022-08-30T08:05:43.984Z,28.67
2022-08-30T08:08:11.231Z,28.94
2022-08-30T08:10:39.197Z,29.06
2022-08-30T08:13:05.930Z,29.04
2022-08-30T08:15:33.027Z,29.01
2022-08-30T08:18:00.363Z,29.01
2022-08-30T08:20:27.217Z,29.01
2022-08-30T08:22:54.018Z,28.89
2022-08-30T08:25:20.707Z,28.66
2022-08-30T08:27:49.122Z,28.43
2022-08-30T08:30:15.872Z,28.21
2022-08-30T08:32:42.987Z,28.12
2022-08-30T08:35:11.247Z,28.04
2022-08-30T08:37:38.621Z,27.98
2022-08-30T08:40:07.050Z,27.90
2022-08-30T08:42:48.899Z,27.87
2022-08-30T08:45:19.952Z,27.83
2022-08-30T08:48:05.369Z,27.76
2022-08-30T08:50:32.191Z,27.73
2022-08-30T08:53:44.721Z,27.77
2022-08-30T08:56:12.630Z,27.94
2022-08-30T08:58:49.587Z,28.08
2022-08-30T09:01:18.306Z,28.40
2022-08-30T09:03:46.415Z,28.67
2022-08-30T09:06:16.032Z,28.86
2022-08-30T09:08:42.606Z,29.00
2022-08-30T09:11:16.678Z,28.94
2022-08-30T09:13:43.350Z,28.78
2022-08-30T09:16:14.939Z,28.61
2022-08-30T09:18:54.631Z,28.57
2022-08-30T09:21:25.202Z,28.63
2022-08-30T09:24:00.329Z,28.85
2022-08-30T09:26:36.566Z,29.09
2022-08-30T09:29:05.202Z,29.25
2022-08-30T09:31:47.577Z,29.39
2022-08-30T09:34:20.283Z,29.52
2022-08-30T09:36:49.840Z,29.74
2022-08-30T09:39:30.518Z,29.94
2022-08-30T09:42:22.659Z,30.05
2022-08-30T09:44:49.831Z,30.13
2022-08-30T09:47:28.523Z,30.23
2022-08-30T09:50:21.146Z,30.43
2022-08-30T09:52:58.086Z,30.67
2022-08-30T09:55:43.473Z,30.84
2022-08-30T09:58:16.184Z,30.87
2022-08-30T10:00:49.605Z,30.74
2022-08-30T10:03:36.450Z,30.60
2022-08-30T10:06:46.578Z,30.48
2022-08-30T10:09:21.245Z,30.43
2022-08-30T10:11:59.074Z,30.49
2022-08-30T10:15:02.612Z,30.51
2022-08-30T10:18:17.225Z,30.52
2022-08-30T10:20:56.752Z,30.60
2022-08-30T10:23:29.866Z,30.72
2022-08-30T10:26:06.011Z,30.82
2022-08-30T10:28:55.871Z,31.07
2022-08-30T10:31:44.525Z,31.20
2022-08-30T10:34:26.065Z,31.07
2022-08-30T10:37:04.500Z,30.79
2022-08-30T10:39:39.537Z,30.62
2022-08-30T10:42:10.734Z,30.61
2022-08-30T10:44:44.590Z,30.64
2022-08-30T10:47:18.595Z,30.66
2022-08-30T10:49:55.794Z,30.73
2022-08-30T10:52:48.091Z,30.75
2022-08-30T10:55:22.217Z,30.80
2022-08-30T10:57:49.775Z,30.81
2022-08-30T11:00:25.271Z,30.86
2022-08-30T11:03:20.630Z,31.01
2022-08-30T11:06:03.315Z,31.10
2022-08-30T11:08:47.876Z,31.07
2022-08-30T11:11:51.960Z,31.12
2022-08-30T11:14:19.934Z,31.15
2022-08-30T11:16:54.224Z,31.13
2022-08-30T11:19:32.375Z,31.01
2022-08-30T11:22:35.538Z,31.02
2022-08-30T11:25:15.668Z,31.04
2022-08-30T11:27:45.228Z,31.03
2022-08-30T11:30:27.367Z,30.98
2022-08-30T11:33:03.240Z,31.07
2022-08-30T11:35:48.767Z,31.26
2022-08-30T11:38:26.439Z,31.42
2022-08-30T11:40:56.325Z,31.54
2022-08-30T11:43:36.566Z,31.62
2022-08-30T11:46:28.117Z,31.58
2022-08-30T11:49:15.854Z,31.46
2022-08-30T11:52:26.560Z,31.43
2022-08-30T11:54:52.881Z,31.43
2022-08-30T11:57:42.847Z,31.41
2022-08-30T12:00:31.333Z,31.26
2022-08-30T12:03:03.990Z,31.03
2022-08-30T12:05:41.172Z,30.94
2022-08-30T12:08:20.630Z,30.94
2022-08-30T12:10:57.343Z,30.94
2022-08-30T12:13:39.129Z,30.87
2022-08-30T12:16:13.137Z,30.87
2022-08-30T12:35:26.322Z,30.21
2022-08-30T12:38:05.869Z,29.97
2022-08-30T12:40:35.380Z,29.70
2022-08-30T13:07:34.264Z,26.06
2022-08-30T13:10:07.101Z,25.89
2022-08-30T13:12:36.012Z,25.68
2022-08-30T13:15:16.691Z,25.01
2022-08-30T13:17:45.152Z,24.57
2022-08-30T13:20:11.645Z,24.46
2022-08-30T13:22:40.713Z,24.54
2022-08-30T13:25:09.335Z,24.71
2022-08-30T13:27:37.358Z,24.75
2022-08-30T13:30:22.605Z,24.48
2022-08-30T13:32:50.259Z,23.83
2022-08-30T13:35:17.126Z,23.15
2022-08-30T13:37:49.895Z,22.52
2022-08-30T13:40:24.288Z,21.32
2022-08-30T14:15:33.446Z,20.19
2022-08-30T14:17:59.976Z,20.01
2022-08-30T14:20:26.563Z,20.12
2022-08-30T14:22:53.539Z,20.15
2022-08-30T14:25:20.133Z,20.35
2022-08-30T14:27:47.282Z,20.39
2022-08-30T14:30:16.725Z,20.38
2022-08-30T14:32:47.200Z,20.41
2022-08-30T14:35:16.535Z,20.52
2022-08-30T14:37:43.045Z,20.63
2022-08-30T14:40:10.202Z,20.70
2022-08-30T14:42:37.304Z,20.71
2022-08-30T14:45:04.503Z,20.66
2022-08-30T14:47:31.118Z,20.70
2022-08-30T14:50:00.881Z,20.75
2022-08-30T14:52:31.041Z,20.90
2022-08-30T14:55:08.782Z,21.01
2022-08-30T14:57:35.936Z,21.13
2022-08-30T15:00:07.079Z,21.13
2022-08-30T15:18:06.464Z,21.45
2022-08-30T15:20:33.097Z,21.40
2022-08-30T15:23:00.569Z,21.35
2022-08-30T15:25:27.610Z,21.38
2022-08-30T15:27:54.173Z,21.39
2022-08-30T15:30:21.285Z,21.40
2022-08-30T15:32:47.897Z,21.44
2022-08-30T15:35:15.169Z,21.41
2022-08-30T15:37:43.054Z,21.52
2022-08-30T15:40:10.462Z,21.53
2022-08-30T15:42:37.066Z,21.47
2022-08-30T15:45:04.058Z,21.46
2022-08-30T15:47:30.682Z,21.47
2022-08-30T15:50:03.046Z,21.45
2022-08-30T15:52:30.726Z,21.48
2022-08-30T15:54:57.660Z,21.43
2022-08-30T15:57:24.453Z,21.46
2022-08-30T15:59:51.189Z,21.56
2022-08-30T16:02:17.764Z,21.62
2022-08-30T16:04:44.869Z,21.71
2022-08-30T16:07:13.711Z,21.66
2022-08-30T16:09:40.804Z,21.62
2022-08-30T16:12:09.860Z,21.48
2022-08-30T16:14:36.784Z,21.24
2022-08-30T16:17:04.856Z,21.26
2022-08-30T16:19:32.941Z,21.30
2022-08-30T16:21:59.944Z,21.25
2022-08-30T16:24:27.118Z,21.26
2022-08-30T16:26:53.744Z,21.25
2022-08-30T16:29:20.683Z,21.25
2022-08-30T16:31:47.607Z,21.21
2022-08-30T16:34:16.784Z,21.20
2022-08-30T16:36:43.522Z,21.22
2022-08-30T16:39:12.830Z,21.27
2022-08-30T16:41:40.587Z,21.25
2022-08-30T16:44:07.323Z,21.23
2022-08-30T16:46:35.830Z,21.31
2022-08-30T16:49:02.770Z,21.40
2022-08-30T16:51:31.541Z,21.44
2022-08-30T16:54:01.684Z,21.47
2022-08-30T16:56:30.096Z,21.54
2022-08-30T16:59:01.795Z,21.55
2022-08-30T17:01:35.378Z,21.51
2022-08-30T17:04:03.189Z,21.52
2022-08-30T17:06:30.195Z,21.60
2022-08-30T17:08:56.765Z,21.67
2022-08-30T17:11:24.182Z,21.76
2022-08-30T17:13:51.190Z,21.83
2022-08-30T17:16:22.805Z,21.86
2022-08-30T17:18:55.072Z,21.82
2022-08-30T17:21:21.876Z,21.76
2022-08-30T17:23:50.294Z,21.77
2022-08-30T17:26:18.531Z,21.64
2022-08-30T17:28:45.769Z,21.53
2022-08-30T17:31:12.523Z,21.47
2022-08-30T17:33:43.091Z,21.42
2022-08-30T17:36:12.413Z,21.39
2022-08-30T17:38:44.717Z,21.38
2022-08-30T17:41:12.025Z,21.42
2022-08-30T17:43:39.334Z,21.44
2022-08-30T17:46:09.032Z,21.47
2022-08-30T17:48:37.279Z,21.58
2022-08-30T17:51:04.287Z,21.86
2022-08-30T17:53:30.896Z,22.10
2022-08-30T17:55:58.743Z,22.31
2022-08-30T17:58:25.455Z,22.37
2022-08-30T18:00:54.177Z,22.21
2022-08-30T18:03:20.880Z,22.16
2022-08-30T18:05:47.490Z,22.16
2022-08-30T18:08:14.151Z,22.19
2022-08-30T18:10:40.885Z,22.21
2022-08-30T18:13:07.728Z,22.24
2022-08-30T18:15:35.345Z,22.26
2022-08-30T18:18:01.914Z,22.26
2022-08-30T18:20:31.866Z,22.25
2022-08-30T18:22:58.475Z,22.21
2022-08-30T18:25:25.019Z,22.17
2022-08-30T18:27:57.255Z,22.07
2022-08-30T18:30:33.162Z,22.04
2022-08-30T18:33:01.478Z,21.89
2022-08-30T18:35:38.743Z,21.74
2022-08-30T18:38:09.873Z,21.63
2022-08-30T18:40:37.982Z,21.63
2022-08-30T18:43:08.022Z,21.85
2022-08-30T18:45:35.253Z,21.96
2022-08-30T18:48:03.794Z,21.95
2022-08-30T18:50:31.947Z,21.96
2022-08-30T18:52:58.690Z,21.96
2022-08-30T18:55:26.496Z,21.93
2022-08-30T18:57:53.117Z,21.97
2022-08-30T19:00:21.212Z,22.10
2022-08-30T19:02:47.945Z,22.27
2022-08-30T19:05:16.325Z,22.49
2022-08-30T19:07:44.545Z,22.68
2022-08-30T19:10:12.725Z,22.80
2022-08-30T19:12:40.273Z,22.88
2022-08-30T19:17:57.678Z,22.94
2022-08-30T19:20:25.113Z,22.96
2022-08-30T19:23:08.825Z,23.04
2022-08-30T19:25:40.140Z,23.06
2022-08-30T19:28:07.186Z,23.17
2022-08-30T19:30:34.533Z,23.20
2022-08-30T19:33:01.246Z,23.15
2022-08-30T19:35:29.928Z,23.06
2022-08-30T19:37:57.142Z,22.96
2022-08-30T19:40:23.860Z,22.86
2022-08-30T19:42:52.299Z,22.77
2022-08-30T19:45:21.672Z,22.68
2022-08-30T19:47:49.341Z,22.63
2022-08-30T19:50:17.158Z,22.60
2022-08-30T19:52:47.297Z,22.59
2022-08-30T19:55:17.778Z,22.54
2022-08-30T19:57:50.311Z,22.47
2022-08-30T20:00:17.709Z,22.42
2022-08-30T20:02:44.806Z,22.38
2022-08-30T20:05:17.402Z,22.33
2022-08-30T20:07:44.036Z,22.29
2022-08-30T20:10:12.919Z,22.22
2022-08-30T20:12:39.959Z,22.25
2022-08-30T20:15:14.648Z,22.23
2022-08-30T20:18:03.102Z,22.29
2022-08-30T20:20:33.567Z,22.24
2022-08-30T20:23:02.951Z,22.19
2022-08-30T20:24:32.208Z,22.93
2022-08-30T20:25:30.620Z,22.13
2022-08-30T20:27:57.153Z,22.22
2022-08-30T20:30:23.785Z,22.30
2022-08-30T20:32:52.557Z,22.32
2022-08-30T20:35:19.145Z,22.23
2022-08-30T20:37:45.922Z,22.13
2022-08-30T20:40:16.072Z,22.04
2022-08-30T20:42:45.711Z,21.99
2022-08-30T20:45:14.520Z,21.94
2022-08-30T20:47:41.778Z,21.90
2022-08-30T20:50:13.879Z,21.87
2022-08-30T20:52:40.813Z,21.87
2022-08-30T20:55:08.253Z,21.89
2022-08-30T20:57:34.858Z,21.88
2022-08-30T21:00:01.714Z,21.89
2022-08-30T21:02:28.400Z,21.87
2022-08-30T21:04:55.123Z,21.81
2022-08-30T21:07:21.768Z,21.75
2022-08-30T21:09:48.357Z,21.66
2022-08-30T21:12:14.973Z,21.62
2022-08-30T21:14:41.552Z,21.59
2022-08-30T21:17:08.195Z,21.61
2022-08-30T21:19:34.904Z,21.59
2022-08-30T21:22:01.913Z,21.57
2022-08-30T21:24:31.320Z,21.56
2022-08-30T21:26:58.821Z,21.58
2022-08-30T21:29:28.084Z,21.58
2022-08-30T21:31:55.551Z,21.59
2022-08-30T21:34:22.689Z,21.60
2022-08-30T21:36:49.858Z,21.60
2022-08-30T21:39:18.154Z,21.58
2022-08-30T21:41:45.286Z,21.57
2022-08-30T21:44:15.674Z,21.57
2022-08-30T21:46:42.767Z,21.69
2022-08-30T21:49:11.317Z,21.68
2022-08-30T21:51:41.212Z,21.68
2022-08-30T21:54:09.783Z,21.67
2022-08-30T21:56:37.853Z,21.66
2022-08-30T21:59:05.933Z,21.63
2022-08-30T22:01:33.000Z,21.61
2022-08-30T22:04:01.739Z,21.57
2022-08-30T22:06:30.865Z,21.61
2022-08-30T22:08:59.450Z,21.60
2022-08-30T22:11:26.989Z,21.54
2022-08-30T22:13:54.403Z,21.42
2022-08-30T22:16:22.303Z,21.36
2022-08-30T22:18:50.503Z,21.32
2022-08-30T22:21:20.817Z,21.39
2022-08-30T22:23:47.528Z,21.46
2022-08-30T22:26:16.700Z,21.52
2022-08-30T22:28:43.648Z,21.63
2022-08-30T22:31:12.675Z,21.77
2022-08-30T22:33:39.554Z,21.78
2022-08-30T22:36:14.593Z,21.86
2022-08-30T22:38:41.391Z,21.84
2022-08-30T22:41:10.340Z,21.77
2022-08-30T22:43:36.851Z,21.78
2022-08-30T22:46:03.661Z,21.79
2022-08-30T22:48:30.325Z,21.78
2022-08-30T22:50:56.917Z,21.75
2022-08-30T22:53:23.476Z,21.74
2022-08-30T22:55:50.060Z,21.69
2022-08-30T22:58:19.006Z,21.66
2022-08-30T23:00:49.729Z,21.66
2022-08-30T23:03:22.090Z,21.74
2022-08-30T23:05:48.657Z,21.88
2022-08-30T23:08:15.212Z,21.92
2022-08-30T23:10:41.886Z,21.94
2022-08-30T23:13:08.429Z,21.96
2022-08-30T23:15:35.027Z,21.99
2022-08-30T23:18:01.608Z,22.04
2022-08-30T23:20:28.304Z,22.13
2022-08-30T23:23:00.725Z,22.12
2022-08-30T23:25:51.738Z,22.07
2022-08-30T23:28:38.962Z,21.97
2022-08-30T23:31:32.590Z,21.94
2022-08-30T23:34:18.261Z,21.93
2022-08-30T23:37:03.555Z,21.99
2022-08-30T23:39:48.298Z,21.95
2022-08-30T23:42:33.290Z,21.92
2022-08-30T23:45:18.130Z,21.85
2022-08-30T23:48:03.374Z,21.81
2022-08-30T23:50:48.791Z,21.80
2022-08-30T23:53:33.598Z,21.93
2022-08-30T23:56:19.065Z,21.89
2022-08-30T23:59:04.174Z,21.80
